sensor_id;sensor_type;location;lat;lon;timestamp;P1;durP1;ratioP1;P2;durP2;ratioP2
71154;SDS011;59375;53.216;5.728;2022-09-03T00:00:48;4.80;;;2.10;;
71154;SDS011;59375;53.216;5.728;2022-09-03T00:05:48;4.47;;;1.83;;
71154;SDS011;59375;53.216;5.728;2022-09-03T00:08:22;3.95;;;1.80;;
71154;SDS011;59375;53.216;5.728;2022-09-03T00:13:46;12.20;;;1.95;;
71154;SDS011;59375;53.216;5.728;2022-09-03T00:16:17;6.43;;;1.80;;
71154;SDS011;59375;53.216;5.728;2022-09-03T00:18:48;5.30;;;1.70;;
71154;SDS011;59375;53.216;5.728;2022-09-03T00:21:39;3.88;;;1.80;;
71154;SDS011;59375;53.216;5.728;2022-09-03T00:24:09;5.40;;;1.90;;
71154;SDS011;59375;53.216;5.728;2022-09-03T00:26:38;4.20;;;1.98;;
71154;SDS011;59375;53.216;5.728;2022-09-03T00:31:36;3.80;;;2.00;;
71154;SDS011;59375;53.216;5.728;2022-09-03T00:34:21;4.22;;;2.10;;
71154;SDS011;59375;53.216;5.728;2022-09-03T00:37:03;4.50;;;1.88;;
71154;SDS011;59375;53.216;5.728;2022-09-03T00:39:29;4.80;;;1.95;;
71154;SDS011;59375;53.216;5.728;2022-09-03T00:42:01;4.82;;;1.90;;
71154;SDS011;59375;53.216;5.728;2022-09-03T00:45:02;6.38;;;2.00;;
71154;SDS011;59375;53.216;5.728;2022-09-03T00:50:18;5.38;;;2.00;;
71154;SDS011;59375;53.216;5.728;2022-09-03T00:53:10;4.35;;;1.80;;
71154;SDS011;59375;53.216;5.728;2022-09-03T00:58:37;3.83;;;2.10;;
71154;SDS011;59375;53.216;5.728;2022-09-03T01:01:08;3.53;;;1.67;;
71154;SDS011;59375;53.216;5.728;2022-09-03T01:12:06;5.00;;;1.85;;
71154;SDS011;59375;53.216;5.728;2022-09-03T01:22:42;4.88;;;1.90;;
71154;SDS011;59375;53.216;5.728;2022-09-03T01:31:12;4.72;;;2.03;;
71154;SDS011;59375;53.216;5.728;2022-09-03T01:39:28;5.63;;;1.90;;
71154;SDS011;59375;53.216;5.728;2022-09-03T01:42:22;3.72;;;2.08;;
71154;SDS011;59375;53.216;5.728;2022-09-03T01:48:03;4.88;;;2.10;;
71154;SDS011;59375;53.216;5.728;2022-09-03T01:50:37;5.15;;;1.90;;
71154;SDS011;59375;53.216;5.728;2022-09-03T01:53:22;3.80;;;1.77;;
71154;SDS011;59375;53.216;5.728;2022-09-03T02:01:48;5.05;;;1.77;;
71154;SDS011;59375;53.216;5.728;2022-09-03T02:04:23;3.83;;;1.80;;
71154;SDS011;59375;53.216;5.728;2022-09-03T02:06:50;5.25;;;2.00;;
71154;SDS011;59375;53.216;5.728;2022-09-03T02:09:17;5.70;;;1.75;;
71154;SDS011;59375;53.216;5.728;2022-09-03T02:11:45;5.40;;;1.83;;
71154;SDS011;59375;53.216;5.728;2022-09-03T02:14:21;4.72;;;1.55;;
71154;SDS011;59375;53.216;5.728;2022-09-03T02:16:47;3.45;;;1.80;;
71154;SDS011;59375;53.216;5.728;2022-09-03T02:19:14;3.95;;;1.63;;
71154;SDS011;59375;53.216;5.728;2022-09-03T02:21:51;8.35;;;2.08;;
71154;SDS011;59375;53.216;5.728;2022-09-03T02:24:19;5.03;;;1.90;;
71154;SDS011;59375;53.216;5.728;2022-09-03T02:26:44;3.55;;;1.70;;
71154;SDS011;59375;53.216;5.728;2022-09-03T02:29:11;4.28;;;1.83;;
71154;SDS011;59375;53.216;5.728;2022-09-03T02:31:38;4.03;;;1.70;;
71154;SDS011;59375;53.216;5.728;2022-09-03T02:34:03;6.03;;;1.90;;
71154;SDS011;59375;53.216;5.728;2022-09-03T02:36:33;4.00;;;1.95;;
71154;SDS011;59375;53.216;5.728;2022-09-03T02:39:01;4.43;;;1.77;;
71154;SDS011;59375;53.216;5.728;2022-09-03T02:41:27;3.53;;;1.70;;
71154;SDS011;59375;53.216;5.728;2022-09-03T02:46:37;6.18;;;1.90;;
71154;SDS011;59375;53.216;5.728;2022-09-03T02:49:07;4.47;;;1.75;;
71154;SDS011;59375;53.216;5.728;2022-09-03T02:51:34;5.00;;;2.03;;
71154;SDS011;59375;53.216;5.728;2022-09-03T02:54:02;4.53;;;1.70;;
71154;SDS011;59375;53.216;5.728;2022-09-03T02:56:28;3.20;;;1.70;;
71154;SDS011;59375;53.216;5.728;2022-09-03T02:58:53;3.83;;;1.88;;
71154;SDS011;59375;53.216;5.728;2022-09-03T03:01:19;2.90;;;1.52;;
71154;SDS011;59375;53.216;5.728;2022-09-03T03:03:45;3.92;;;1.90;;
71154;SDS011;59375;53.216;5.728;2022-09-03T03:06:10;4.15;;;1.80;;
71154;SDS011;59375;53.216;5.728;2022-09-03T03:08:38;5.38;;;2.10;;
71154;SDS011;59375;53.216;5.728;2022-09-03T03:11:04;3.22;;;1.63;;
71154;SDS011;59375;53.216;5.728;2022-09-03T03:13:31;4.50;;;1.95;;
71154;SDS011;59375;53.216;5.728;2022-09-03T03:15:58;4.07;;;2.08;;
71154;SDS011;59375;53.216;5.728;2022-09-03T03:18:25;6.25;;;1.90;;
71154;SDS011;59375;53.216;5.728;2022-09-03T03:20:52;4.45;;;1.90;;
71154;SDS011;59375;53.216;5.728;2022-09-03T03:23:18;3.70;;;1.98;;
71154;SDS011;59375;53.216;5.728;2022-09-03T03:25:44;2.85;;;1.67;;
71154;SDS011;59375;53.216;5.728;2022-09-03T03:28:10;3.00;;;1.60;;
71154;SDS011;59375;53.216;5.728;2022-09-03T03:30:37;3.55;;;1.80;;
71154;SDS011;59375;53.216;5.728;2022-09-03T03:33:07;5.10;;;2.00;;
71154;SDS011;59375;53.216;5.728;2022-09-03T03:35:34;3.78;;;1.70;;
71154;SDS011;59375;53.216;5.728;2022-09-03T03:38:00;3.85;;;1.60;;
71154;SDS011;59375;53.216;5.728;2022-09-03T03:40:25;3.25;;;1.73;;
71154;SDS011;59375;53.216;5.728;2022-09-03T03:42:51;4.57;;;2.13;;
71154;SDS011;59375;53.216;5.728;2022-09-03T03:45:17;4.78;;;1.70;;
71154;SDS011;59375;53.216;5.728;2022-09-03T03:47:43;4.22;;;1.55;;
71154;SDS011;59375;53.216;5.728;2022-09-03T03:50:08;3.55;;;1.70;;
71154;SDS011;59375;53.216;5.728;2022-09-03T03:52:34;2.65;;;1.60;;
71154;SDS011;59375;53.216;5.728;2022-09-03T03:54:59;5.10;;;1.80;;
71154;SDS011;59375;53.216;5.728;2022-09-03T03:57:28;3.90;;;1.75;;
71154;SDS011;59375;53.216;5.728;2022-09-03T03:59:54;4.18;;;1.80;;
71154;SDS011;59375;53.216;5.728;2022-09-03T04:02:19;4.15;;;1.80;;
71154;SDS011;59375;53.216;5.728;2022-09-03T04:04:45;4.20;;;1.80;;
71154;SDS011;59375;53.216;5.728;2022-09-03T04:07:11;5.25;;;2.05;;
71154;SDS011;59375;53.216;5.728;2022-09-03T04:09:36;4.22;;;1.90;;
71154;SDS011;59375;53.216;5.728;2022-09-03T04:12:02;3.78;;;1.80;;
71154;SDS011;59375;53.216;5.728;2022-09-03T04:14:32;3.10;;;1.70;;
71154;SDS011;59375;53.216;5.728;2022-09-03T04:16:59;3.13;;;1.80;;
71154;SDS011;59375;53.216;5.728;2022-09-03T04:19:25;4.00;;;1.63;;
71154;SDS011;59375;53.216;5.728;2022-09-03T04:21:52;3.70;;;1.92;;
71154;SDS011;59375;53.216;5.728;2022-09-03T04:24:17;3.10;;;1.65;;
71154;SDS011;59375;53.216;5.728;2022-09-03T04:26:43;6.50;;;1.83;;
71154;SDS011;59375;53.216;5.728;2022-09-03T04:29:09;3.88;;;1.80;;
71154;SDS011;59375;53.216;5.728;2022-09-03T04:31:35;3.90;;;1.88;;
71154;SDS011;59375;53.216;5.728;2022-09-03T04:34:03;2.80;;;1.50;;
71154;SDS011;59375;53.216;5.728;2022-09-03T04:36:31;3.83;;;1.80;;
71154;SDS011;59375;53.216;5.728;2022-09-03T04:38:59;4.25;;;1.70;;
71154;SDS011;59375;53.216;5.728;2022-09-03T04:41:26;3.15;;;1.73;;
71154;SDS011;59375;53.216;5.728;2022-09-03T04:43:54;3.67;;;1.83;;
71154;SDS011;59375;53.216;5.728;2022-09-03T04:46:22;4.03;;;1.80;;
71154;SDS011;59375;53.216;5.728;2022-09-03T04:48:53;4.32;;;1.90;;
71154;SDS011;59375;53.216;5.728;2022-09-03T04:51:23;5.53;;;1.70;;
71154;SDS011;59375;53.216;5.728;2022-09-03T04:53:55;3.78;;;1.80;;
71154;SDS011;59375;53.216;5.728;2022-09-03T04:56:24;3.45;;;1.77;;
71154;SDS011;59375;53.216;5.728;2022-09-03T04:58:55;4.30;;;1.75;;
71154;SDS011;59375;53.216;5.728;2022-09-03T05:01:23;3.28;;;1.80;;
71154;SDS011;59375;53.216;5.728;2022-09-03T05:03:50;3.72;;;1.77;;
71154;SDS011;59375;53.216;5.728;2022-09-03T05:06:16;3.28;;;1.70;;
71154;SDS011;59375;53.216;5.728;2022-09-03T05:08:48;3.55;;;1.60;;
71154;SDS011;59375;53.216;5.728;2022-09-03T05:11:15;3.70;;;2.00;;
71154;SDS011;59375;53.216;5.728;2022-09-03T05:13:41;3.58;;;1.75;;
71154;SDS011;59375;53.216;5.728;2022-09-03T05:16:08;3.95;;;1.90;;
71154;SDS011;59375;53.216;5.728;2022-09-03T05:18:35;4.55;;;1.88;;
71154;SDS011;59375;53.216;5.728;2022-09-03T05:21:02;4.72;;;1.80;;
71154;SDS011;59375;53.216;5.728;2022-09-03T05:23:30;4.57;;;1.80;;
71154;SDS011;59375;53.216;5.728;2022-09-03T05:26:00;5.45;;;2.00;;
71154;SDS011;59375;53.216;5.728;2022-09-03T05:28:29;4.00;;;1.88;;
71154;SDS011;59375;53.216;5.728;2022-09-03T05:30:58;4.47;;;1.83;;
71154;SDS011;59375;53.216;5.728;2022-09-03T05:33:25;3.70;;;1.88;;
71154;SDS011;59375;53.216;5.728;2022-09-03T05:35:51;6.00;;;1.92;;
71154;SDS011;59375;53.216;5.728;2022-09-03T05:38:18;3.17;;;1.70;;
71154;SDS011;59375;53.216;5.728;2022-09-03T05:40:43;3.80;;;1.70;;
71154;SDS011;59375;53.216;5.728;2022-09-03T05:43:09;4.97;;;1.92;;
71154;SDS011;59375;53.216;5.728;2022-09-03T05:45:34;4.25;;;1.90;;
71154;SDS011;59375;53.216;5.728;2022-09-03T05:48:01;4.13;;;1.80;;
71154;SDS011;59375;53.216;5.728;2022-09-03T05:50:26;3.83;;;2.10;;
71154;SDS011;59375;53.216;5.728;2022-09-03T05:52:52;4.57;;;1.90;;
71154;SDS011;59375;53.216;5.728;2022-09-03T05:55:18;3.40;;;1.80;;
71154;SDS011;59375;53.216;5.728;2022-09-03T05:57:43;5.25;;;2.00;;
71154;SDS011;59375;53.216;5.728;2022-09-03T06:00:10;3.15;;;1.80;;
71154;SDS011;59375;53.216;5.728;2022-09-03T06:02:35;3.47;;;1.85;;
71154;SDS011;59375;53.216;5.728;2022-09-03T06:05:01;6.22;;;2.00;;
71154;SDS011;59375;53.216;5.728;2022-09-03T06:07:27;5.25;;;1.90;;
71154;SDS011;59375;53.216;5.728;2022-09-03T06:09:53;4.43;;;1.90;;
71154;SDS011;59375;53.216;5.728;2022-09-03T06:12:18;4.63;;;1.90;;
71154;SDS011;59375;53.216;5.728;2022-09-03T06:14:44;6.20;;;2.50;;
71154;SDS011;59375;53.216;5.728;2022-09-03T06:17:09;4.85;;;1.92;;
71154;SDS011;59375;53.216;5.728;2022-09-03T06:19:36;4.28;;;1.83;;
71154;SDS011;59375;53.216;5.728;2022-09-03T06:22:02;5.25;;;1.90;;
71154;SDS011;59375;53.216;5.728;2022-09-03T06:24:28;3.80;;;1.98;;
71154;SDS011;59375;53.216;5.728;2022-09-03T06:26:54;5.60;;;2.30;;
71154;SDS011;59375;53.216;5.728;2022-09-03T06:29:20;3.47;;;1.92;;
71154;SDS011;59375;53.216;5.728;2022-09-03T06:31:46;4.88;;;1.92;;
71154;SDS011;59375;53.216;5.728;2022-09-03T06:34:15;6.55;;;2.10;;
71154;SDS011;59375;53.216;5.728;2022-09-03T06:36:42;5.63;;;1.90;;
71154;SDS011;59375;53.216;5.728;2022-09-03T06:39:08;5.10;;;2.03;;
71154;SDS011;59375;53.216;5.728;2022-09-03T06:41:34;4.03;;;1.90;;
71154;SDS011;59375;53.216;5.728;2022-09-03T06:44:00;4.35;;;2.10;;
71154;SDS011;59375;53.216;5.728;2022-09-03T06:46:33;4.35;;;2.25;;
71154;SDS011;59375;53.216;5.728;2022-09-03T06:49:00;4.40;;;2.00;;
71154;SDS011;59375;53.216;5.728;2022-09-03T06:51:27;5.40;;;1.95;;
71154;SDS011;59375;53.216;5.728;2022-09-03T06:53:57;6.78;;;2.00;;
71154;SDS011;59375;53.216;5.728;2022-09-03T06:56:32;3.70;;;1.90;;
71154;SDS011;59375;53.216;5.728;2022-09-03T06:59:02;4.80;;;2.08;;
71154;SDS011;59375;53.216;5.728;2022-09-03T07:01:30;5.43;;;2.20;;
71154;SDS011;59375;53.216;5.728;2022-09-03T07:03:57;6.93;;;2.15;;
71154;SDS011;59375;53.216;5.728;2022-09-03T07:06:25;6.32;;;2.22;;
71154;SDS011;59375;53.216;5.728;2022-09-03T07:08:53;4.50;;;2.17;;
71154;SDS011;59375;53.216;5.728;2022-09-03T07:11:22;6.18;;;2.10;;
71154;SDS011;59375;53.216;5.728;2022-09-03T07:13:51;4.25;;;1.90;;
71154;SDS011;59375;53.216;5.728;2022-09-03T07:16:21;4.25;;;2.05;;
71154;SDS011;59375;53.216;5.728;2022-09-03T07:18:48;4.30;;;2.10;;
71154;SDS011;59375;53.216;5.728;2022-09-03T07:21:15;6.03;;;2.30;;
71154;SDS011;59375;53.216;5.728;2022-09-03T07:23:45;4.57;;;2.05;;
71154;SDS011;59375;53.216;5.728;2022-09-03T07:26:16;5.22;;;2.20;;
71154;SDS011;59375;53.216;5.728;2022-09-03T07:29:02;4.30;;;1.95;;
71154;SDS011;59375;53.216;5.728;2022-09-03T07:31:30;4.40;;;1.88;;
71154;SDS011;59375;53.216;5.728;2022-09-03T07:33:58;4.18;;;1.98;;
71154;SDS011;59375;53.216;5.728;2022-09-03T07:36:26;4.38;;;2.33;;
71154;SDS011;59375;53.216;5.728;2022-09-03T07:38:54;8.52;;;1.90;;
71154;SDS011;59375;53.216;5.728;2022-09-03T07:41:21;4.65;;;2.03;;
71154;SDS011;59375;53.216;5.728;2022-09-03T07:43:49;6.75;;;1.90;;
71154;SDS011;59375;53.216;5.728;2022-09-03T07:46:15;4.75;;;2.08;;
71154;SDS011;59375;53.216;5.728;2022-09-03T07:48:49;3.63;;;2.20;;
71154;SDS011;59375;53.216;5.728;2022-09-03T07:51:16;5.03;;;2.10;;
71154;SDS011;59375;53.216;5.728;2022-09-03T07:53:44;4.38;;;1.92;;
71154;SDS011;59375;53.216;5.728;2022-09-03T07:56:10;3.67;;;1.90;;
71154;SDS011;59375;53.216;5.728;2022-09-03T07:58:37;8.00;;;2.20;;
71154;SDS011;59375;53.216;5.728;2022-09-03T08:01:13;6.47;;;2.30;;
71154;SDS011;59375;53.216;5.728;2022-09-03T08:03:47;4.13;;;2.00;;
71154;SDS011;59375;53.216;5.728;2022-09-03T08:06:14;4.20;;;2.00;;
71154;SDS011;59375;53.216;5.728;2022-09-03T08:08:41;4.60;;;2.20;;
71154;SDS011;59375;53.216;5.728;2022-09-03T08:11:10;5.43;;;2.10;;
71154;SDS011;59375;53.216;5.728;2022-09-03T08:13:37;6.13;;;2.05;;
71154;SDS011;59375;53.216;5.728;2022-09-03T08:16:14;5.40;;;2.03;;
71154;SDS011;59375;53.216;5.728;2022-09-03T08:18:42;3.45;;;2.00;;
71154;SDS011;59375;53.216;5.728;2022-09-03T08:21:12;4.05;;;2.10;;
71154;SDS011;59375;53.216;5.728;2022-09-03T08:23:44;4.57;;;2.08;;
71154;SDS011;59375;53.216;5.728;2022-09-03T08:26:11;8.68;;;2.10;;
71154;SDS011;59375;53.216;5.728;2022-09-03T08:28:38;3.53;;;1.98;;
71154;SDS011;59375;53.216;5.728;2022-09-03T08:33:35;3.90;;;2.00;;
71154;SDS011;59375;53.216;5.728;2022-09-03T08:36:07;3.78;;;1.90;;
71154;SDS011;59375;53.216;5.728;2022-09-03T08:38:37;3.88;;;2.00;;
71154;SDS011;59375;53.216;5.728;2022-09-03T08:41:08;4.60;;;2.05;;
71154;SDS011;59375;53.216;5.728;2022-09-03T08:46:49;4.75;;;2.40;;
71154;SDS011;59375;53.216;5.728;2022-09-03T08:50:01;6.25;;;2.25;;
71154;SDS011;59375;53.216;5.728;2022-09-03T08:55:15;6.22;;;2.10;;
71154;SDS011;59375;53.216;5.728;2022-09-03T08:57:48;4.10;;;2.10;;
71154;SDS011;59375;53.216;5.728;2022-09-03T09:00:18;4.13;;;2.20;;
71154;SDS011;59375;53.216;5.728;2022-09-03T09:03:06;9.20;;;2.28;;
71154;SDS011;59375;53.216;5.728;2022-09-03T09:05:42;5.00;;;2.00;;
71154;SDS011;59375;53.216;5.728;2022-09-03T09:10:48;4.32;;;2.10;;
71154;SDS011;59375;53.216;5.728;2022-09-03T09:16:25;4.68;;;2.00;;
71154;SDS011;59375;53.216;5.728;2022-09-03T09:22:21;5.10;;;2.08;;
71154;SDS011;59375;53.216;5.728;2022-09-03T09:24:52;4.40;;;2.00;;
71154;SDS011;59375;53.216;5.728;2022-09-03T09:27:20;5.25;;;2.30;;
71154;SDS011;59375;53.216;5.728;2022-09-03T09:29:47;4.95;;;2.10;;
71154;SDS011;59375;53.216;5.728;2022-09-03T09:32:15;3.40;;;1.90;;
71154;SDS011;59375;53.216;5.728;2022-09-03T09:34:42;5.55;;;2.10;;
71154;SDS011;59375;53.216;5.728;2022-09-03T09:37:09;5.72;;;1.90;;
71154;SDS011;59375;53.216;5.728;2022-09-03T09:39:37;6.65;;;2.00;;
71154;SDS011;59375;53.216;5.728;2022-09-03T09:42:04;5.25;;;2.00;;
71154;SDS011;59375;53.216;5.728;2022-09-03T09:44:36;9.45;;;2.30;;
71154;SDS011;59375;53.216;5.728;2022-09-03T09:47:07;6.10;;;2.00;;
71154;SDS011;59375;53.216;5.728;2022-09-03T09:49:50;5.40;;;2.10;;
71154;SDS011;59375;53.216;5.728;2022-09-03T09:52:17;5.03;;;1.98;;
71154;SDS011;59375;53.216;5.728;2022-09-03T09:54:46;3.85;;;2.05;;
71154;SDS011;59375;53.216;5.728;2022-09-03T09:57:16;4.38;;;2.13;;
71154;SDS011;59375;53.216;5.728;2022-09-03T09:59:45;4.65;;;2.00;;
71154;SDS011;59375;53.216;5.728;2022-09-03T10:02:12;3.13;;;1.90;;
71154;SDS011;59375;53.216;5.728;2022-09-03T10:04:44;5.00;;;2.10;;
71154;SDS011;59375;53.216;5.728;2022-09-03T10:07:30;4.25;;;2.00;;
71154;SDS011;59375;53.216;5.728;2022-09-03T10:10:00;5.95;;;2.33;;
71154;SDS011;59375;53.216;5.728;2022-09-03T10:15:24;6.47;;;2.00;;
71154;SDS011;59375;53.216;5.728;2022-09-03T10:20:32;5.65;;;2.00;;
71154;SDS011;59375;53.216;5.728;2022-09-03T10:26:03;6.57;;;2.10;;
71154;SDS011;59375;53.216;5.728;2022-09-03T10:28:37;5.72;;;2.03;;
71154;SDS011;59375;53.216;5.728;2022-09-03T10:31:14;5.78;;;1.95;;
71154;SDS011;59375;53.216;5.728;2022-09-03T10:34:11;4.07;;;1.85;;
71154;SDS011;59375;53.216;5.728;2022-09-03T10:37:11;7.00;;;1.98;;
71154;SDS011;59375;53.216;5.728;2022-09-03T10:50:18;5.63;;;1.98;;
71154;SDS011;59375;53.216;5.728;2022-09-03T10:55:51;5.82;;;2.03;;
71154;SDS011;59375;53.216;5.728;2022-09-03T11:01:35;4.13;;;2.03;;
71154;SDS011;59375;53.216;5.728;2022-09-03T11:04:27;4.37;;;2.10;;
71154;SDS011;59375;53.216;5.728;2022-09-03T11:07:15;5.22;;;1.90;;
71154;SDS011;59375;53.216;5.728;2022-09-03T11:09:45;5.30;;;2.00;;
71154;SDS011;59375;53.216;5.728;2022-09-03T11:12:29;4.20;;;1.85;;
71154;SDS011;59375;53.216;5.728;2022-09-03T11:15:00;6.38;;;2.08;;
71154;SDS011;59375;53.216;5.728;2022-09-03T11:17:35;6.68;;;2.10;;
71154;SDS011;59375;53.216;5.728;2022-09-03T11:20:22;5.68;;;2.10;;
71154;SDS011;59375;53.216;5.728;2022-09-03T11:22:51;5.60;;;2.35;;
71154;SDS011;59375;53.216;5.728;2022-09-03T11:25:20;4.85;;;2.10;;
71154;SDS011;59375;53.216;5.728;2022-09-03T11:33:39;3.85;;;1.90;;
71154;SDS011;59375;53.216;5.728;2022-09-03T11:38:59;5.50;;;2.05;;
71154;SDS011;59375;53.216;5.728;2022-09-03T11:41:26;4.43;;;1.77;;
71154;SDS011;59375;53.216;5.728;2022-09-03T11:44:09;6.50;;;1.90;;
71154;SDS011;59375;53.216;5.728;2022-09-03T11:46:51;6.95;;;2.08;;
71154;SDS011;59375;53.216;5.728;2022-09-03T11:49:31;3.20;;;1.80;;
71154;SDS011;59375;53.216;5.728;2022-09-03T11:52:03;5.50;;;1.90;;
71154;SDS011;59375;53.216;5.728;2022-09-03T11:54:41;4.43;;;2.00;;
71154;SDS011;59375;53.216;5.728;2022-09-03T11:59:39;6.13;;;1.90;;
71154;SDS011;59375;53.216;5.728;2022-09-03T12:02:24;5.55;;;1.90;;
71154;SDS011;59375;53.216;5.728;2022-09-03T12:10:39;4.95;;;2.65;;
71154;SDS011;59375;53.216;5.728;2022-09-03T12:13:25;4.57;;;2.13;;
71154;SDS011;59375;53.216;5.728;2022-09-03T12:18:38;3.10;;;1.80;;
71154;SDS011;59375;53.216;5.728;2022-09-03T12:21:06;6.50;;;1.90;;
71154;SDS011;59375;53.216;5.728;2022-09-03T12:23:44;4.43;;;2.03;;
71154;SDS011;59375;53.216;5.728;2022-09-03T12:26:15;6.22;;;1.90;;
71154;SDS011;59375;53.216;5.728;2022-09-03T12:28:48;4.55;;;1.80;;
71154;SDS011;59375;53.216;5.728;2022-09-03T12:31:17;3.53;;;1.70;;
71154;SDS011;59375;53.216;5.728;2022-09-03T12:34:08;5.35;;;1.90;;
71154;SDS011;59375;53.216;5.728;2022-09-03T12:36:36;2.90;;;1.80;;
71154;SDS011;59375;53.216;5.728;2022-09-03T12:39:10;4.22;;;1.80;;
71154;SDS011;59375;53.216;5.728;2022-09-03T12:41:38;4.20;;;1.90;;
71154;SDS011;59375;53.216;5.728;2022-09-03T12:44:28;4.20;;;1.75;;
71154;SDS011;59375;53.216;5.728;2022-09-03T12:47:04;4.20;;;1.70;;
71154;SDS011;59375;53.216;5.728;2022-09-03T12:49:37;3.08;;;1.70;;
71154;SDS011;59375;53.216;5.728;2022-09-03T12:52:14;4.30;;;1.90;;
71154;SDS011;59375;53.216;5.728;2022-09-03T12:54:53;4.30;;;1.90;;
71154;SDS011;59375;53.216;5.728;2022-09-03T13:00:05;3.13;;;1.70;;
71154;SDS011;59375;53.216;5.728;2022-09-03T13:02:52;7.03;;;1.80;;
71154;SDS011;59375;53.216;5.728;2022-09-03T13:05:21;5.97;;;1.90;;
71154;SDS011;59375;53.216;5.728;2022-09-03T13:07:53;3.70;;;1.80;;
71154;SDS011;59375;53.216;5.728;2022-09-03T13:10:24;4.65;;;1.90;;
71154;SDS011;59375;53.216;5.728;2022-09-03T13:12:57;3.63;;;1.90;;
71154;SDS011;59375;53.216;5.728;2022-09-03T13:15:24;4.28;;;1.90;;
71154;SDS011;59375;53.216;5.728;2022-09-03T13:17:54;3.83;;;1.77;;
71154;SDS011;59375;53.216;5.728;2022-09-03T13:33:40;4.18;;;1.90;;
71154;SDS011;59375;53.216;5.728;2022-09-03T13:36:20;4.25;;;1.92;;
71154;SDS011;59375;53.216;5.728;2022-09-03T13:38:55;5.50;;;1.80;;
71154;SDS011;59375;53.216;5.728;2022-09-03T13:44:17;4.90;;;1.80;;
71154;SDS011;59375;53.216;5.728;2022-09-03T13:47:07;5.50;;;1.80;;
71154;SDS011;59375;53.216;5.728;2022-09-03T13:49:50;4.60;;;1.77;;
71154;SDS011;59375;53.216;5.728;2022-09-03T13:55:22;3.38;;;1.90;;
71154;SDS011;59375;53.216;5.728;2022-09-03T13:58:10;4.15;;;1.95;;
71154;SDS011;59375;53.216;5.728;2022-09-03T14:06:19;3.50;;;1.75;;
71154;SDS011;59375;53.216;5.728;2022-09-03T14:11:49;5.10;;;1.80;;
71154;SDS011;59375;53.216;5.728;2022-09-03T14:17:43;5.70;;;1.97;;
71154;SDS011;59375;53.216;5.728;2022-09-03T14:20:21;4.72;;;1.90;;
71154;SDS011;59375;53.216;5.728;2022-09-03T14:25:56;2.97;;;1.90;;
71154;SDS011;59375;53.216;5.728;2022-09-03T14:28:28;3.38;;;1.90;;
71154;SDS011;59375;53.216;5.728;2022-09-03T14:33:33;3.78;;;1.80;;
71154;SDS011;59375;53.216;5.728;2022-09-03T14:36:15;7.75;;;1.95;;
71154;SDS011;59375;53.216;5.728;2022-09-03T14:41:31;5.80;;;1.80;;
71154;SDS011;59375;53.216;5.728;2022-09-03T14:53:49;6.93;;;1.90;;
71154;SDS011;59375;53.216;5.728;2022-09-03T15:00:58;4.30;;;1.80;;
71154;SDS011;59375;53.216;5.728;2022-09-03T15:03:46;9.68;;;2.03;;
71154;SDS011;59375;53.216;5.728;2022-09-03T15:06:44;3.97;;;1.80;;
71154;SDS011;59375;53.216;5.728;2022-09-03T15:09:45;6.07;;;1.80;;
71154;SDS011;59375;53.216;5.728;2022-09-03T15:12:28;4.28;;;2.00;;
71154;SDS011;59375;53.216;5.728;2022-09-03T15:15:00;4.28;;;1.80;;
71154;SDS011;59375;53.216;5.728;2022-09-03T15:20:49;4.03;;;1.77;;
71154;SDS011;59375;53.216;5.728;2022-09-03T15:34:18;5.63;;;1.98;;
71154;SDS011;59375;53.216;5.728;2022-09-03T15:37:09;6.93;;;1.77;;
71154;SDS011;59375;53.216;5.728;2022-09-03T15:39:56;2.88;;;1.67;;
71154;SDS011;59375;53.216;5.728;2022-09-03T15:42:47;4.07;;;1.70;;
71154;SDS011;59375;53.216;5.728;2022-09-03T15:50:53;4.95;;;2.00;;
71154;SDS011;59375;53.216;5.728;2022-09-03T15:53:35;4.75;;;1.70;;
71154;SDS011;59375;53.216;5.728;2022-09-03T15:56:24;7.93;;;1.98;;
71154;SDS011;59375;53.216;5.728;2022-09-03T15:59:11;6.93;;;1.77;;
71154;SDS011;59375;53.216;5.728;2022-09-03T16:04:42;3.63;;;1.80;;
71154;SDS011;59375;53.216;5.728;2022-09-03T16:10:20;3.22;;;1.70;;
71154;SDS011;59375;53.216;5.728;2022-09-03T16:16:07;4.68;;;1.98;;
71154;SDS011;59375;53.216;5.728;2022-09-03T16:18:59;3.65;;;1.70;;
71154;SDS011;59375;53.216;5.728;2022-09-03T16:24:25;5.00;;;1.90;;
71154;SDS011;59375;53.216;5.728;2022-09-03T16:27:13;5.65;;;1.85;;
71154;SDS011;59375;53.216;5.728;2022-09-03T16:32:32;7.88;;;1.80;;
71154;SDS011;59375;53.216;5.728;2022-09-03T16:37:40;3.10;;;1.70;;
71154;SDS011;59375;53.216;5.728;2022-09-03T16:40:41;5.10;;;1.80;;
71154;SDS011;59375;53.216;5.728;2022-09-03T16:48:43;2.63;;;1.60;;
71154;SDS011;59375;53.216;5.728;2022-09-03T16:51:42;2.95;;;1.70;;
71154;SDS011;59375;53.216;5.728;2022-09-03T16:54:20;3.95;;;2.00;;
71154;SDS011;59375;53.216;5.728;2022-09-03T17:17:20;7.05;;;1.85;;
71154;SDS011;59375;53.216;5.728;2022-09-03T17:22:52;6.22;;;1.70;;
71154;SDS011;59375;53.216;5.728;2022-09-03T17:25:37;4.20;;;1.80;;
71154;SDS011;59375;53.216;5.728;2022-09-03T17:30:48;3.70;;;2.10;;
71154;SDS011;59375;53.216;5.728;2022-09-03T17:36:24;5.45;;;2.00;;
71154;SDS011;59375;53.216;5.728;2022-09-03T17:41:49;5.47;;;1.92;;
71154;SDS011;59375;53.216;5.728;2022-09-03T17:49:55;4.75;;;2.00;;
71154;SDS011;59375;53.216;5.728;2022-09-03T17:52:35;4.32;;;1.98;;
71154;SDS011;59375;53.216;5.728;2022-09-03T17:55:58;4.57;;;2.00;;
71154;SDS011;59375;53.216;5.728;2022-09-03T17:58:10;6.20;;;2.00;;
71154;SDS011;59375;53.216;5.728;2022-09-03T18:00:43;6.15;;;1.90;;
71154;SDS011;59375;53.216;5.728;2022-09-03T18:03:29;3.92;;;1.88;;
71154;SDS011;59375;53.216;5.728;2022-09-03T18:11:33;5.78;;;2.10;;
71154;SDS011;59375;53.216;5.728;2022-09-03T18:22:19;4.28;;;2.05;;
71154;SDS011;59375;53.216;5.728;2022-09-03T18:25:16;4.10;;;2.15;;
71154;SDS011;59375;53.216;5.728;2022-09-03T18:28:00;5.50;;;2.60;;
71154;SDS011;59375;53.216;5.728;2022-09-03T18:30:49;4.68;;;2.30;;
71154;SDS011;59375;53.216;5.728;2022-09-03T18:33:34;7.30;;;2.58;;
71154;SDS011;59375;53.216;5.728;2022-09-03T18:36:19;5.22;;;2.17;;
71154;SDS011;59375;53.216;5.728;2022-09-03T18:42:03;5.80;;;2.50;;
71154;SDS011;59375;53.216;5.728;2022-09-03T18:48:17;7.65;;;2.40;;
71154;SDS011;59375;53.216;5.728;2022-09-03T18:51:11;5.72;;;2.90;;
71154;SDS011;59375;53.216;5.728;2022-09-03T18:54:22;5.28;;;2.92;;
71154;SDS011;59375;53.216;5.728;2022-09-03T18:57:12;5.15;;;2.63;;
71154;SDS011;59375;53.216;5.728;2022-09-03T19:06:04;6.65;;;2.45;;
71154;SDS011;59375;53.216;5.728;2022-09-03T19:09:15;5.68;;;2.60;;
71154;SDS011;59375;53.216;5.728;2022-09-03T19:12:08;4.50;;;2.83;;
71154;SDS011;59375;53.216;5.728;2022-09-03T19:15:23;4.82;;;2.92;;
71154;SDS011;59375;53.216;5.728;2022-09-03T19:21:30;6.35;;;2.85;;
71154;SDS011;59375;53.216;5.728;2022-09-03T19:24:17;5.03;;;2.70;;
71154;SDS011;59375;53.216;5.728;2022-09-03T19:27:10;6.10;;;2.63;;
71154;SDS011;59375;53.216;5.728;2022-09-03T19:30:20;7.53;;;2.75;;
71154;SDS011;59375;53.216;5.728;2022-09-03T19:42:46;4.90;;;2.80;;
71154;SDS011;59375;53.216;5.728;2022-09-03T19:46:11;7.57;;;2.95;;
71154;SDS011;59375;53.216;5.728;2022-09-03T19:52:03;4.97;;;2.83;;
71154;SDS011;59375;53.216;5.728;2022-09-03T19:54:55;6.00;;;3.10;;
71154;SDS011;59375;53.216;5.728;2022-09-03T19:57:41;6.72;;;3.10;;
71154;SDS011;59375;53.216;5.728;2022-09-03T20:00:28;5.63;;;2.80;;
71154;SDS011;59375;53.216;5.728;2022-09-03T20:03:14;8.77;;;2.92;;
71154;SDS011;59375;53.216;5.728;2022-09-03T20:05:58;6.20;;;3.00;;
71154;SDS011;59375;53.216;5.728;2022-09-03T20:08:46;6.13;;;2.80;;
71154;SDS011;59375;53.216;5.728;2022-09-03T20:11:32;8.82;;;3.30;;
71154;SDS011;59375;53.216;5.728;2022-09-03T20:13:58;5.30;;;2.70;;
71154;SDS011;59375;53.216;5.728;2022-09-03T20:16:42;5.80;;;2.90;;
71154;SDS011;59375;53.216;5.728;2022-09-03T20:24:54;6.55;;;2.88;;
71154;SDS011;59375;53.216;5.728;2022-09-03T20:30:19;8.23;;;2.80;;